Time;durP1;ratioP1;P1;durP2;ratioP2;P2;SDS_P1;SDS_P2;PMS_P1;PMS_P2;Temp;Humidity;BMP_temperature;BMP_pressure;BME280_temperature;BME280_humidity;BME280_pressure;Samples;Min_cycle;Max_cycle;Signal;HPM_P1;HPM_P2
2021/11/09 00:00:53;;;;;;;17.42;9.69;;;;;;;9.15;78.34;100952.48;465962;110;923046;-86
2021/11/09 00:01:59;;;;;;;14.48;8.75;;;;;;;9.14;78.33;100957.09;466434;109;923060;-86
2021/11/09 00:03:13;;;;;;;14.68;9.04;;;;;;;9.15;78.31;100958.74;465581;112;923133;-85
2021/11/09 00:04:16;;;;;;;18.76;10.02;;;;;;;9.14;78.35;100957.09;466990;112;923126;-87
2021/11/09 00:05:24;;;;;;;14.63;9.88;;;;;;;9.15;78.41;100956.02;466592;112;922649;-86
2021/11/09 00:06:30;;;;;;;16.86;10.37;;;;;;;9.18;78.46;100962.97;466075;109;923180;-86
2021/11/09 00:07:43;;;;;;;18.42;10.27;;;;;;;9.17;78.40;100953.95;466391;109;923178;-86
2021/11/09 00:08:53;;;;;;;18.32;10.22;;;;;;;9.18;78.39;100952.92;465383;112;923091;-85
2021/11/09 00:09:59;;;;;;;24.75;10.57;;;;;;;9.17;78.40;100953.95;466685;110;922082;-85
2021/11/09 00:11:03;;;;;;;17.01;10.57;;;;;;;9.18;78.34;100950.20;468164;110;922647;-86
2021/11/09 00:12:08;;;;;;;15.16;9.74;;;;;;;9.18;78.39;100944.77;460214;111;922592;-85
2021/11/09 00:13:12;;;;;;;18.54;10.50;;;;;;;9.18;78.45;100936.60;461201;112;922675;-86
2021/11/09 00:14:16;;;;;;;23.39;10.48;;;;;;;9.20;78.49;100939.13;461026;111;929960;-85
2021/11/09 00:15:22;;;;;;;25.93;10.93;;;;;;;9.21;78.56;100935.34;458522;114;923041;-88
2021/11/09 00:16:30;;;;;;;20.45;10.49;;;;;;;9.25;78.55;100938.54;458753;113;930779;-85
2021/11/09 00:17:35;;;;;;;19.86;10.14;;;;;;;9.26;78.49;100934.78;458926;114;922913;-85
2021/11/09 00:18:39;;;;;;;18.25;10.21;;;;;;;9.27;78.45;100940.00;460097;111;922450;-87
2021/11/09 00:19:43;;;;;;;21.09;9.69;;;;;;;9.29;78.35;100946.11;458954;111;922612;-85
2021/11/09 00:20:47;;;;;;;23.82;10.44;;;;;;;9.29;78.29;100939.81;458326;114;923384;-85
2021/11/09 00:21:51;;;;;;;19.12;9.70;;;;;;;9.29;78.33;100939.81;458577;114;923114;-87
2021/11/09 00:22:57;;;;;;;19.19;10.86;;;;;;;9.30;78.32;100938.78;456987;114;922614;-86
2021/11/09 00:24:03;;;;;;;17.23;10.89;;;;;;;9.30;78.25;100931.47;458844;111;923003;-85
2021/11/09 00:25:08;;;;;;;13.91;10.76;;;;;;;9.29;78.17;100935.22;458294;111;922810;-84
2021/11/09 00:26:14;;;;;;;21.45;10.71;;;;;;;9.29;78.28;100929.78;444598;116;923083;-86
2021/11/09 00:27:19;;;;;;;20.91;10.53;;;;;;;9.30;78.33;100934.19;444283;116;922822;-86
2021/11/09 00:28:23;;;;;;;21.48;10.43;;;;;;;9.32;78.33;100931.28;444364;115;923339;-86
2021/11/09 00:29:27;;;;;;;23.98;10.02;;;;;;;9.34;78.32;100932.74;444800;115;922633;-86
2021/11/09 00:30:31;;;;;;;20.28;10.28;;;;;;;9.35;78.27;100931.70;446139;117;922576;-86
2021/11/09 00:31:36;;;;;;;21.57;9.70;;;;;;;9.36;78.19;100933.40;445027;117;922887;-85
2021/11/09 00:32:44;;;;;;;29.22;10.86;;;;;;;9.36;78.18;100930.67;444871;114;923172;-86
2021/11/09 00:33:48;;;;;;;19.17;10.17;;;;;;;9.36;78.11;100925.23;445324;114;923156;-86
2021/11/09 00:34:51;;;;;;;15.09;10.15;;;;;;;9.37;78.19;100928.80;446872;114;923259;-86
2021/11/09 00:35:55;;;;;;;24.52;10.14;;;;;;;9.37;78.21;100928.80;445765;117;922740;-85
2021/11/09 00:36:59;;;;;;;23.91;10.64;;;;;;;9.38;78.18;100934.02;445371;117;922612;-85
2021/11/09 00:38:05;;;;;;;22.49;10.56;;;;;;;9.37;78.08;100926.89;448068;114;922548;-85
2021/11/09 00:39:12;;;;;;;17.38;10.19;;;;;;;9.37;78.15;100921.45;446240;117;923087;-85
2021/11/09 00:40:19;;;;;;;20.74;10.48;;;;;;;9.38;78.21;100917.69;445818;117;922881;-86
2021/11/09 00:41:24;;;;;;;29.46;10.68;;;;;;;9.40;78.25;100922.94;445575;117;922486;-86
2021/11/09 00:42:29;;;;;;;18.56;10.37;;;;;;;9.43;78.39;100926.09;445127;114;922759;-88
2021/11/09 00:43:33;;;;;;;30.01;11.85;;;;;;;9.46;78.45;100925.72;445214;117;922675;-86
2021/11/09 00:44:37;;;;;;;20.72;11.08;;;;;;;9.50;78.40;100926.15;445456;117;922706;-86
2021/11/09 00:45:41;;;;;;;22.05;11.36;;;;;;;9.52;78.40;100922.20;445297;114;923103;-87
2021/11/09 00:46:46;;;;;;;20.14;11.00;;;;;;;9.55;78.35;100924.51;445844;114;922949;-85
2021/11/09 00:47:50;;;;;;;24.71;11.08;;;;;;;9.57;78.22;100917.00;445488;114;922956;-84
2021/11/09 00:48:53;;;;;;;24.96;11.45;;;;;;;9.60;78.10;100921.18;446279;117;923498;-85
2021/11/09 00:49:57;;;;;;;27.14;11.37;;;;;;;9.60;77.96;100921.18;445794;117;923077;-85
2021/11/09 00:51:01;;;;;;;23.08;11.52;;;;;;;9.60;77.91;100919.30;445965;114;922627;-85
2021/11/09 00:52:06;;;;;;;28.79;11.59;;;;;;;9.59;77.79;100930.41;445437;114;922610;-84
2021/11/09 00:53:12;;;;;;;23.99;11.35;;;;;;;9.59;77.82;100931.23;445486;117;930623;-86
2021/11/09 00:54:16;;;;;;;21.62;12.72;;;;;;;9.59;77.82;100931.23;445398;114;922649;-86
2021/11/09 00:55:21;;;;;;;21.94;12.48;;;;;;;9.58;77.83;100932.30;445563;116;923583;-85
2021/11/09 00:56:27;;;;;;;19.46;12.63;;;;;;;9.59;77.77;100933.95;439160;119;923232;-85
2021/11/09 00:57:31;;;;;;;21.94;10.85;;;;;;;9.60;77.76;100934.80;443742;116;922427;-86
2021/11/09 00:58:35;;;;;;;15.27;10.42;;;;;;;9.60;77.78;100922.02;446096;115;922375;-86
2021/11/09 00:59:39;;;;;;;20.13;11.19;;;;;;;9.63;77.61;100929.81;445929;111;922709;-85
2021/11/09 01:00:43;;;;;;;18.81;10.58;;;;;;;9.63;77.61;100929.81;443216;119;930290;-86
2021/11/09 01:01:47;;;;;;;18.34;11.19;;;;;;;9.62;77.63;100939.02;443394;118;922415;-86
2021/11/09 01:02:51;;;;;;;25.42;10.40;;;;;;;9.62;77.61;100939.02;446247;109;922750;-86
2021/11/09 01:03:55;;;;;;;25.81;11.26;;;;;;;9.62;77.58;100941.73;445863;115;922857;-85
2021/11/09 01:04:59;;;;;;;19.56;11.02;;;;;;;9.62;77.60;100936.29;446451;115;922283;-86
2021/11/09 01:06:03;;;;;;;23.34;10.59;;;;;;;9.62;77.54;100930.84;446686;117;922500;-85
2021/11/09 01:07:07;;;;;;;16.82;11.54;;;;;;;9.64;77.66;100936.09;446010;115;922842;-86
2021/11/09 01:08:15;;;;;;;15.94;11.66;;;;;;;9.66;77.61;100938.59;446396;115;930782;-86
2021/11/09 01:09:18;;;;;;;16.24;10.82;;;;;;;9.68;77.60;100936.53;447097;111;922221;-86
2021/11/09 01:10:25;;;;;;;22.87;11.69;;;;;;;9.69;77.62;100949.11;445405;117;922334;-86
2021/11/09 01:11:29;;;;;;;29.33;10.33;;;;;;;9.69;77.53;100941.78;443790;117;922578;-86
2021/11/09 01:12:33;;;;;;;14.11;9.80;;;;;;;9.69;77.50;100938.22;452987;113;922658;-86
2021/11/09 01:13:37;;;;;;;13.52;10.72;;;;;;;9.70;77.46;100939.91;456923;112;922374;-86
2021/11/09 01:14:42;;;;;;;17.41;10.73;;;;;;;9.70;77.40;100948.07;466259;111;930339;-86
2021/11/09 01:15:50;;;;;;;17.60;11.07;;;;;;;9.70;77.39;100943.47;466397;111;922737;-85
2021/11/09 01:16:54;;;;;;;20.21;11.58;;;;;;;9.71;77.34;100950.57;466284;109;922951;-86
2021/11/09 01:17:59;;;;;;;14.72;10.83;;;;;;;9.70;77.25;100954.36;467293;109;922582;-86
2021/11/09 01:19:05;;;;;;;18.69;11.18;;;;;;;9.69;77.21;100951.83;466019;110;923516;-86
2021/11/09 01:20:12;;;;;;;13.54;9.66;;;;;;;9.68;77.23;100955.59;467044;110;922606;-86
2021/11/09 01:21:18;;;;;;;13.12;10.08;;;;;;;9.66;77.16;100963.10;467052;109;922719;-85
2021/11/09 01:22:22;;;;;;;11.22;10.08;;;;;;;9.63;77.08;100954.31;466430;112;922859;-84
2021/11/09 01:23:27;;;;;;;16.04;9.91;;;;;;;9.60;77.09;100957.42;466883;112;922974;-85
2021/11/09 01:24:31;;;;;;;15.92;10.40;;;;;;;9.59;77.09;100963.08;466902;109;923520;-86
2021/11/09 01:25:35;;;;;;;17.42;9.39;;;;;;;9.57;77.17;100956.98;466489;111;923050;-85
2021/11/09 01:26:39;;;;;;;12.78;10.11;;;;;;;9.56;77.21;100966.19;467922;112;922452;-85
2021/11/09 01:27:43;;;;;;;13.90;10.04;;;;;;;9.55;77.24;100962.62;466270;112;922542;-84
2021/11/09 01:28:50;;;;;;;15.03;9.95;;;;;;;9.55;77.32;100956.33;467301;109;922615;-84
2021/11/09 01:29:54;;;;;;;16.40;10.11;;;;;;;9.55;77.32;100965.34;466536;109;923099;-86
2021/11/09 01:31:00;;;;;;;14.53;9.57;;;;;;;9.54;77.37;100960.94;466680;112;922912;-85
2021/11/09 01:32:04;;;;;;;14.35;10.86;;;;;;;9.54;77.33;100955.48;466762;110;922581;-86
2021/11/09 01:33:08;;;;;;;17.95;10.09;;;;;;;9.53;77.35;100953.83;456162;112;922941;-86
2021/11/09 01:34:13;;;;;;;19.25;10.46;;;;;;;9.53;77.34;100958.44;456832;112;922468;-87
2021/11/09 01:35:17;;;;;;;14.65;9.99;;;;;;;9.50;77.35;100965.09;467086;112;922931;-86
2021/11/09 01:36:22;;;;;;;19.09;9.86;;;;;;;9.48;77.31;100956.28;466291;110;930319;-86
2021/11/09 01:37:27;;;;;;;15.53;9.89;;;;;;;9.47;77.30;100960.06;465493;109;924976;-87
2021/11/09 01:38:32;;;;;;;19.34;10.09;;;;;;;9.45;77.30;100955.84;466403;109;922554;-84
2021/11/09 01:39:36;;;;;;;18.02;9.37;;;;;;;9.44;77.37;100962.33;466718;111;922733;-86
2021/11/09 01:40:41;;;;;;;19.56;10.48;;;;;;;9.42;77.40;100959.83;466653;112;923179;-86
2021/11/09 01:41:45;;;;;;;10.91;9.77;;;;;;;9.40;77.42;100948.28;458869;112;930533;-86
2021/11/09 01:42:50;;;;;;;12.40;9.11;;;;;;;9.38;77.41;100955.80;459938;112;931388;-86
2021/11/09 01:43:55;;;;;;;13.59;10.42;;;;;;;9.37;77.39;100950.56;467672;112;925416;-86
2021/11/09 01:44:59;;;;;;;15.49;11.18;;;;;;;9.35;77.47;100949.91;467571;110;922335;-86
2021/11/09 01:46:11;;;;;;;20.60;10.34;;;;;;;9.33;77.55;100952.83;467391;109;922059;-86
2021/11/09 01:47:15;;;;;;;13.35;10.43;;;;;;;9.33;77.54;100947.38;467087;109;930399;-85
2021/11/09 01:48:19;;;;;;;16.38;11.24;;;;;;;9.32;77.57;100940.25;459312;112;922226;-86
2021/11/09 01:49:23;;;;;;;14.57;10.74;;;;;;;9.32;77.64;100948.41;450628;114;922990;-86
2021/11/09 01:50:31;;;;;;;20.85;10.84;;;;;;;9.33;77.72;100946.53;467404;109;922503;-86
2021/11/09 01:51:35;;;;;;;20.54;11.31;;;;;;;9.34;77.70;100953.67;467776;109;923390;-86
2021/11/09 01:52:39;;;;;;;20.22;10.15;;;;;;;9.32;77.67;100940.25;458479;114;922565;-85
2021/11/09 01:53:47;;;;;;;19.06;10.42;;;;;;;9.33;77.75;100941.09;459352;112;930487;-85
2021/11/09 01:54:50;;;;;;;16.80;10.28;;;;;;;9.33;77.80;100941.94;466604;110;922870;-86
2021/11/09 01:55:59;;;;;;;17.71;10.12;;;;;;;9.34;77.73;100946.34;465701;110;922429;-85
2021/11/09 01:57:02;;;;;;;26.73;10.61;;;;;;;9.36;77.68;100944.28;467083;110;922983;-85
2021/11/09 01:58:08;;;;;;;14.48;10.81;;;;;;;9.35;77.68;100950.76;456934;113;923112;-86
2021/11/09 01:59:12;;;;;;;20.93;10.24;;;;;;;9.36;77.81;100955.17;465990;109;922688;-87
2021/11/09 02:00:21;;;;;;;23.30;10.62;;;;;;;9.38;77.82;100955.80;468517;109;922984;-84
2021/11/09 02:01:27;;;;;;;27.43;10.42;;;;;;;9.39;77.79;100952.03;466116;112;923574;-84
2021/11/09 02:02:31;;;;;;;15.01;10.23;;;;;;;9.41;77.75;100955.41;466203;112;923165;-87
2021/11/09 02:03:38;;;;;;;17.91;10.82;;;;;;;9.42;77.71;100965.27;465979;109;922518;-86
2021/11/09 02:04:43;;;;;;;17.12;11.30;;;;;;;9.44;77.68;100954.16;467478;109;922529;-85
2021/11/09 02:05:49;;;;;;;17.72;10.41;;;;;;;9.44;77.52;100949.56;466614;112;923157;-86
2021/11/09 02:06:52;;;;;;;13.50;10.84;;;;;;;9.42;77.45;100954.38;466756;112;922882;-85
2021/11/09 02:07:59;;;;;;;21.59;10.39;;;;;;;9.42;77.38;100956.25;467808;109;923087;-87
2021/11/09 02:09:12;;;;;;;15.96;10.40;;;;;;;9.40;77.36;100958.33;466857;109;922802;-85
2021/11/09 02:10:19;;;;;;;14.61;9.67;;;;;;;9.40;77.36;100969.20;466484;112;923428;-85
2021/11/09 02:11:22;;;;;;;14.28;10.09;;;;;;;9.37;77.31;100969.63;466728;109;922974;-87
2021/11/09 02:12:26;;;;;;;14.78;10.32;;;;;;;9.35;77.27;100966.24;465349;109;923469;-85
2021/11/09 02:13:30;;;;;;;12.34;9.73;;;;;;;9.32;77.25;100967.47;466778;110;922723;-86
2021/11/09 02:14:34;;;;;;;20.53;11.10;;;;;;;9.31;77.28;100965.80;467353;112;922685;-86
2021/11/09 02:15:39;;;;;;;15.80;10.09;;;;;;;9.30;77.31;100969.56;466191;112;922569;-87
2021/11/09 02:16:44;;;;;;;13.96;9.94;;;;;;;9.30;77.30;100968.72;466609;109;922618;-87
2021/11/09 02:17:49;;;;;;;18.21;10.41;;;;;;;9.29;77.35;100972.47;467536;110;923044;-86
2021/11/09 02:18:54;;;;;;;16.28;10.62;;;;;;;9.29;77.34;100967.88;465708;112;930351;-86
2021/11/09 02:19:58;;;;;;;11.66;10.19;;;;;;;9.30;77.35;100974.16;466859;110;922371;-86
2021/11/09 02:21:10;;;;;;;17.61;10.54;;;;;;;9.29;77.29;100965.15;466694;109;930250;-86
2021/11/09 02:22:15;;;;;;;11.89;10.53;;;;;;;9.30;77.24;100963.27;466458;110;930544;-85
2021/11/09 02:23:20;;;;;;;12.15;10.12;;;;;;;9.29;77.23;100962.43;466410;112;923181;-85
2021/11/09 02:24:23;;;;;;;13.44;9.30;;;;;;;9.28;77.24;100965.34;466078;112;930346;-85
2021/11/09 02:25:30;;;;;;;14.38;9.91;;;;;;;9.28;77.28;100957.17;467382;109;923083;-86
2021/11/09 02:26:36;;;;;;;18.18;10.23;;;;;;;9.28;77.32;100960.73;466954;112;922932;-86
2021/11/09 02:27:42;;;;;;;11.19;9.78;;;;;;;9.28;77.26;100962.62;465876;112;922542;-85
2021/11/09 02:28:48;;;;;;;11.46;8.94;;;;;;;9.29;77.35;100962.43;463936;111;922620;-86
2021/11/09 02:29:52;;;;;;;14.37;10.03;;;;;;;9.29;77.21;100967.88;464807;110;922714;-83
2021/11/09 02:30:56;;;;;;;11.66;9.12;;;;;;;9.28;76.99;100968.06;467610;112;922862;-84
2021/11/09 02:32:00;;;;;;;10.75;9.53;;;;;;;9.26;76.91;100971.00;465045;105;922841;-86
2021/11/09 02:33:04;;;;;;;14.25;10.26;;;;;;;9.25;76.94;100971.19;465230;108;922244;-85
2021/11/09 02:34:08;;;;;;;10.16;9.14;;;;;;;9.24;76.96;100972.22;468919;109;930597;-85
2021/11/09 02:35:13;;;;;;;9.81;8.91;;;;;;;9.23;77.04;100973.25;467686;112;922115;-86
2021/11/09 02:36:18;;;;;;;10.38;9.44;;;;;;;9.24;77.01;100974.94;467533;112;930645;-86
2021/11/09 02:37:22;;;;;;;9.83;8.82;;;;;;;9.24;76.94;100972.22;466204;109;922636;-85
2021/11/09 02:38:27;;;;;;;12.44;9.92;;;;;;;9.23;76.81;100974.09;457894;113;930905;-86
2021/11/09 02:39:31;;;;;;;10.35;8.75;;;;;;;9.21;76.75;100970.72;457161;112;923052;-86
2021/11/09 02:40:36;;;;;;;12.75;9.64;;;;;;;9.20;76.76;100971.78;465647;112;923154;-86
2021/11/09 02:41:40;;;;;;;9.98;9.15;;;;;;;9.18;76.69;100973.84;466940;111;930577;-85
2021/11/09 02:42:48;;;;;;;9.90;9.02;;;;;;;9.16;76.62;100970.47;467262;109;922870;-86
2021/11/09 02:43:53;;;;;;;11.43;10.28;;;;;;;9.14;76.66;100969.84;466514;112;923068;-87
2021/11/09 02:45:03;;;;;;;9.58;8.35;;;;;;;9.13;76.78;100970.88;467405;112;923288;-88
2021/11/09 02:47:32;;;;;;;9.90;9.00;;;;;;;9.12;76.74;100977.34;466416;109;922521;-87
2021/11/09 02:48:43;;;;;;;11.32;9.86;;;;;;;9.11;76.68;100978.38;466566;112;923300;-85
2021/11/09 02:49:57;;;;;;;9.33;8.63;;;;;;;9.10;76.57;100984.85;466075;110;922845;-86
2021/11/09 02:51:09;;;;;;;9.44;8.69;;;;;;;9.08;76.47;100981.50;466575;110;922891;-86
2021/11/09 02:52:08;;;;;;;10.34;9.47;;;;;;;9.06;76.45;100978.12;465015;110;922564;-86
2021/11/09 02:53:18;;;;;;;10.46;9.64;;;;;;;9.04;76.56;100975.59;466672;112;923067;-85
2021/11/09 02:54:35;;;;;;;9.22;8.44;;;;;;;9.03;76.56;100982.09;466611;109;922706;-85
2021/11/09 02:55:46;;;;;;;10.03;9.17;;;;;;;9.03;76.61;100984.81;466003;111;923141;-86
2021/11/09 02:56:53;;;;;;;10.36;9.49;;;;;;;9.02;76.68;100982.28;466092;110;922697;-86
2021/11/09 02:59:06;;;;;;;10.18;9.24;;;;;;;9.02;76.68;100983.13;430159;120;922915;-86
2021/11/09 03:00:21;;;;;;;9.54;8.74;;;;;;;9.02;76.57;100983.13;443000;114;923134;-85
2021/11/09 03:02:47;;;;;;;9.42;8.72;;;;;;;9.00;76.27;100979.75;466215;112;922717;-85
2021/11/09 03:07:32;;;;;;;9.27;8.50;;;;;;;8.91;76.47;100988.23;467767;109;922538;-85
2021/11/09 03:08:38;;;;;;;9.19;8.37;;;;;;;8.90;76.51;100989.27;467421;112;922545;-87
2021/11/09 03:10:04;;;;;;;10.00;8.97;;;;;;;8.89;76.55;100984.86;466254;112;922656;-85
2021/11/09 03:11:05;;;;;;;9.11;8.37;;;;;;;8.88;76.52;100980.45;468153;112;922438;-86
2021/11/09 03:12:11;;;;;;;10.69;9.77;;;;;;;8.85;76.56;100987.14;467935;109;923086;-85
2021/11/09 03:13:14;;;;;;;10.94;9.58;;;;;;;8.84;76.59;100987.33;468716;112;922142;-87
2021/11/09 03:14:20;;;;;;;10.11;9.15;;;;;;;8.83;76.61;100981.04;468618;112;922220;-85
2021/11/09 03:15:29;;;;;;;14.23;10.16;;;;;;;8.81;76.62;100982.28;467020;112;922451;-85
2021/11/09 03:16:37;;;;;;;11.80;9.38;;;;;;;8.80;76.63;100984.16;468300;109;922316;-85
2021/11/09 03:17:54;;;;;;;10.95;9.56;;;;;;;8.78;76.68;100989.78;468488;109;922373;-86
2021/11/09 03:19:04;;;;;;;13.14;9.93;;;;;;;8.78;76.75;100994.38;467079;112;922249;-87
2021/11/09 03:20:00;;;;;;;11.23;9.47;;;;;;;8.77;76.80;100996.25;466819;109;922371;-85
2021/11/09 03:40:27;;;;;;;10.35;9.41;;;;;;;8.68;76.89;100985.70;466958;112;922836;-84
2021/11/09 03:45:23;;;;;;;10.09;9.19;;;;;;;8.73;76.96;101000.40;448734;113;923399;-85
2021/11/09 03:46:30;;;;;;;9.75;8.94;;;;;;;8.75;76.86;100994.77;450742;113;922819;-85
2021/11/09 03:47:37;;;;;;;16.04;10.31;;;;;;;8.76;76.74;100991.88;463930;109;922593;-84
2021/11/09 03:48:39;;;;;;;10.63;9.02;;;;;;;8.77;76.81;100989.97;466718;112;923202;-84
2021/11/09 03:49:44;;;;;;;9.93;8.95;;;;;;;8.79;76.67;100996.91;467207;109;922578;-84
2021/11/09 03:50:49;;;;;;;9.38;8.39;;;;;;;8.81;76.63;100998.59;466438;109;923293;-85
2021/11/09 03:51:54;;;;;;;9.61;8.77;;;;;;;8.82;76.58;101003.01;467023;112;922611;-85
2021/11/09 03:53:06;;;;;;;9.37;8.43;;;;;;;8.83;76.50;100999.23;465822;110;923246;-85
2021/11/09 03:54:12;;;;;;;10.02;9.02;;;;;;;8.83;76.45;101000.07;466428;109;922577;-84
2021/11/09 03:55:14;;;;;;;11.39;9.49;;;;;;;8.86;76.44;100993.42;467110;109;922601;-85
2021/11/09 03:56:20;;;;;;;8.77;8.04;;;;;;;8.87;76.41;100985.08;466213;109;922741;-87
2021/11/09 03:58:48;;;;;;;8.70;7.97;;;;;;;8.91;76.27;100994.52;465560;109;922387;-86
2021/11/09 04:01:20;;;;;;;8.93;8.23;;;;;;;8.93;76.02;100983.46;466871;112;922618;-86
2021/11/09 04:02:25;;;;;;;10.56;8.87;;;;;;;8.93;76.05;100988.90;465949;110;922917;-84
2021/11/09 04:04:36;;;;;;;9.63;8.49;;;;;;;8.96;75.98;100986.63;468263;109;922344;-83
2021/11/09 04:05:40;;;;;;;9.41;8.66;;;;;;;8.98;75.83;100986.44;466750;110;922297;-86
2021/11/09 04:06:49;;;;;;;9.36;8.63;;;;;;;8.97;75.79;100991.03;468684;110;922040;-85
2021/11/09 04:10:33;;;;;;;9.27;8.41;;;;;;;8.98;75.59;100994.59;467120;112;922608;-85
2021/11/09 04:12:51;;;;;;;18.79;9.48;;;;;;;8.95;75.57;101003.13;467881;110;923417;-86
2021/11/09 04:14:08;;;;;;;9.32;8.52;;;;;;;8.95;75.50;101001.25;466347;112;922608;-87
2021/11/09 04:15:06;;;;;;;10.30;9.48;;;;;;;8.94;75.44;101002.28;464928;112;923068;-86
2021/11/09 04:17:17;;;;;;;10.21;9.37;;;;;;;8.95;75.49;101001.25;466970;109;923123;-85
2021/11/09 04:20:54;;;;;;;11.23;10.31;;;;;;;8.92;75.27;101003.52;443427;116;923485;-87
2021/11/09 04:46:48;;;;;;;9.73;8.88;;;;;;;8.55;75.50;101010.00;480797;108;922562;-86
2021/11/09 04:53:06;;;;;;;10.68;9.78;;;;;;;8.50;75.60;101026.04;481552;109;922775;-84
2021/11/09 05:08:59;;;;;;;10.12;9.21;;;;;;;8.43;75.58;101033.28;471344;110;947220;-85
2021/11/09 05:10:04;;;;;;;10.48;9.51;;;;;;;8.31;75.65;101031.05;464770;111;922552;-86
2021/11/09 05:11:05;;;;;;;10.08;9.29;;;;;;;8.31;75.63;101035.64;464339;112;922565;-85
2021/11/09 05:12:09;;;;;;;10.15;9.38;;;;;;;8.31;75.63;101038.36;464847;112;922576;-87
2021/11/09 05:13:13;;;;;;;10.46;9.68;;;;;;;8.30;75.53;101037.52;464328;111;922918;-90
2021/11/09 05:14:17;;;;;;;9.96;9.01;;;;;;;8.29;75.45;101037.66;464694;112;922770;-87
2021/11/09 05:15:21;;;;;;;9.81;8.91;;;;;;;8.28;75.42;101041.41;465634;111;930549;-87
2021/11/09 05:16:26;;;;;;;9.99;9.21;;;;;;;8.26;75.38;101041.61;465480;111;922611;-88
2021/11/09 05:17:30;;;;;;;9.46;8.62;;;;;;;8.26;75.37;101046.20;465866;111;922832;-87
2021/11/09 05:18:33;;;;;;;10.01;9.15;;;;;;;8.25;75.35;101058.09;465972;112;923073;-87
2021/11/09 05:19:37;;;;;;;10.16;9.05;;;;;;;8.24;75.36;101050.97;466446;112;923143;-85
2021/11/09 05:20:41;;;;;;;10.07;8.52;;;;;;;8.23;75.37;101051.99;465135;112;922678;-86
2021/11/09 05:21:45;;;;;;;10.07;9.25;;;;;;;8.23;75.37;101051.99;465312;112;922801;-88
2021/11/09 05:22:49;;;;;;;9.54;8.69;;;;;;;8.23;75.33;101049.28;465931;112;922808;-85
2021/11/09 05:23:53;;;;;;;10.55;9.44;;;;;;;8.21;75.29;101051.36;465854;111;922870;-87
2021/11/09 05:24:58;;;;;;;11.20;9.92;;;;;;;8.19;75.30;101051.53;466395;112;923146;-91
2021/11/09 05:26:02;;;;;;;10.67;9.76;;;;;;;8.19;75.41;101056.12;465796;112;922624;-88
2021/11/09 05:27:07;;;;;;;10.85;9.90;;;;;;;8.18;75.41;101057.15;465829;111;923070;-88
2021/11/09 05:28:11;;;;;;;10.50;9.59;;;;;;;8.17;75.40;101052.74;464629;111;922618;-84
2021/11/09 05:29:15;;;;;;;9.54;8.74;;;;;;;8.17;75.31;101069.04;465323;112;923053;-86
2021/11/09 05:30:22;;;;;;;11.67;9.19;;;;;;;8.15;75.33;101069.25;464538;111;922659;-89
2021/11/09 05:31:26;;;;;;;9.83;9.01;;;;;;;8.13;75.33;101063.15;465182;111;923146;-89
2021/11/09 05:32:30;;;;;;;9.56;8.57;;;;;;;8.11;75.38;101065.20;464912;112;924225;-88
2021/11/09 05:33:34;;;;;;;9.79;9.01;;;;;;;8.09;75.41;101061.84;464558;111;922537;-85
2021/11/09 05:34:37;;;;;;;9.96;9.19;;;;;;;8.08;75.43;101070.17;464851;111;930775;-89
2021/11/09 05:35:41;;;;;;;10.34;9.38;;;;;;;8.07;75.42;101063.89;464776;112;922667;-88
2021/11/09 05:36:45;;;;;;;9.97;9.08;;;;;;;8.06;75.46;101070.34;465346;112;922613;-88
2021/11/09 05:37:50;;;;;;;9.97;9.04;;;;;;;8.05;75.50;101065.13;464864;112;922253;-87
2021/11/09 05:39:07;;;;;;;9.99;9.04;;;;;;;8.05;75.56;101065.13;465982;112;922176;-89
2021/11/09 05:40:04;;;;;;;10.09;9.31;;;;;;;8.04;75.53;101069.72;454554;114;922137;-87
2021/11/09 05:41:09;;;;;;;10.21;9.26;;;;;;;8.03;75.57;101065.30;460367;110;922325;-85
2021/11/09 05:42:14;;;;;;;10.55;9.69;;;;;;;8.02;75.62;101068.20;466237;109;922226;-87
2021/11/09 05:43:18;;;;;;;9.56;8.68;;;;;;;8.02;75.65;101068.20;464717;111;922469;-87
2021/11/09 05:44:22;;;;;;;9.96;9.06;;;;;;;8.02;75.61;101063.61;465264;111;922562;-87
2021/11/09 05:45:28;;;;;;;11.64;10.28;;;;;;;8.01;75.56;101066.50;464728;112;922714;-87
2021/11/09 05:46:33;;;;;;;11.48;9.67;;;;;;;7.99;75.57;101061.28;464954;112;922456;-89
2021/11/09 05:47:37;;;;;;;18.18;10.46;;;;;;;7.99;75.64;101065.87;464489;111;930528;-88
2021/11/09 05:48:42;;;;;;;9.90;8.98;;;;;;;7.97;75.68;101063.33;465364;112;922786;-87
2021/11/09 05:49:45;;;;;;;10.87;9.87;;;;;;;7.96;75.73;101070.63;464338;112;922616;-87
2021/11/09 05:50:50;;;;;;;11.15;10.12;;;;;;;7.99;75.72;101065.87;464616;112;922705;-88
2021/11/09 05:51:53;;;;;;;10.37;9.47;;;;;;;8.00;75.77;101067.53;465525;111;922504;-86
2021/11/09 05:52:57;;;;;;;11.12;10.08;;;;;;;8.00;75.77;101062.09;464666;111;922712;-88
2021/11/09 05:54:01;;;;;;;10.72;9.49;;;;;;;8.01;75.84;101070.06;465040;111;930170;-87
2021/11/09 05:55:05;;;;;;;10.89;9.96;;;;;;;8.03;75.76;101072.61;465464;111;922715;-90
2021/11/09 05:56:09;;;;;;;11.62;10.48;;;;;;;8.03;75.73;101078.03;465500;112;923049;-90
2021/11/09 05:57:13;;;;;;;10.86;9.99;;;;;;;8.03;75.75;101072.61;465242;111;922626;-90
2021/11/09 05:58:17;;;;;;;11.48;9.62;;;;;;;8.04;75.79;101079.73;464086;112;922698;-88
2021/11/09 05:59:21;;;;;;;11.66;10.64;;;;;;;8.06;75.82;101080.37;463608;111;930544;-86
2021/11/09 06:00:25;;;;;;;11.60;10.58;;;;;;;8.08;75.81;101078.31;465385;112;922563;-89
2021/11/09 06:01:29;;;;;;;12.30;11.22;;;;;;;8.09;75.82;101089.00;465942;112;922911;-94
2021/11/09 06:02:33;;;;;;;13.61;12.29;;;;;;;8.11;75.73;101083.36;465090;111;922863;-91
2021/11/09 06:03:38;;;;;;;12.83;11.72;;;;;;;8.12;75.79;101079.62;464923;112;922954;-89
2021/11/09 06:04:41;;;;;;;13.71;12.54;;;;;;;8.15;75.86;101076.55;466178;111;922524;-90
2021/11/09 06:05:46;;;;;;;15.57;14.34;;;;;;;8.17;75.90;101075.32;465881;111;922418;-90
2021/11/09 06:06:50;;;;;;;15.44;14.08;;;;;;;8.20;75.86;101074.96;465146;111;922351;-90
2021/11/09 06:07:53;;;;;;;13.14;12.14;;;;;;;8.23;75.88;101079.16;465489;112;930195;-91
2021/11/09 06:08:57;;;;;;;13.17;11.92;;;;;;;8.26;75.80;101074.22;464395;112;922558;-91
2021/11/09 06:10:01;;;;;;;13.20;11.96;;;;;;;8.27;75.65;101072.34;464737;114;929963;-88
2021/11/09 06:11:05;;;;;;;12.45;11.29;;;;;;;8.28;75.53;101074.84;462694;113;930285;-89
2021/11/09 06:12:08;;;;;;;13.26;11.95;;;;;;;8.29;75.45;101078.41;464502;112;922076;-90
2021/11/09 06:13:13;;;;;;;12.15;11.12;;;;;;;8.28;75.38;101079.44;454109;114;922155;-89
2021/11/09 06:14:17;;;;;;;11.68;10.40;;;;;;;8.27;75.34;101078.59;447625;118;922413;-87
2021/11/09 06:15:20;;;;;;;11.61;10.44;;;;;;;8.26;75.33;101076.93;449377;116;922285;-83
2021/11/09 06:16:25;;;;;;;20.94;10.89;;;;;;;8.24;75.27;101078.98;438133;118;922465;-88
2021/11/09 06:17:29;;;;;;;11.47;10.11;;;;;;;8.18;75.45;101074.30;456276;114;922944;-88
2021/11/09 06:18:32;;;;;;;14.51;10.39;;;;;;;8.18;75.45;101074.30;462787;112;922590;-86
2021/11/09 06:19:36;;;;;;;14.84;10.62;;;;;;;8.19;75.26;101078.70;462677;112;922783;-91
2021/11/09 06:20:41;;;;;;;11.99;10.99;;;;;;;8.17;75.25;101086.19;462927;114;922209;-88
2021/11/09 06:21:44;;;;;;;20.82;11.57;;;;;;;8.15;75.29;101093.70;463244;112;930578;-89
2021/11/09 06:22:48;;;;;;;13.69;10.73;;;;;;;8.14;75.33;101093.88;462944;114;922282;-90
2021/11/09 06:23:53;;;;;;;14.72;11.08;;;;;;;8.13;75.31;101090.31;463737;114;930272;-88
2021/11/09 06:24:57;;;;;;;18.82;11.29;;;;;;;8.11;75.32;101096.95;464212;114;922686;-88
2021/11/09 06:26:02;;;;;;;21.94;11.23;;;;;;;8.10;75.34;101095.28;457515;111;930336;-91